Windlesham, United Kingdom
Current Conditions -  °F | °C
As of 6:20 AM on Monday 22 Dec 2014 (Local Time) from EGLL Reporting Station
Broken Clouds Broken Clouds  
Wind Chill: 55°   Ceiling: 1800
Heat Index: 55°   Visibility: 6mi
Dew Point: 50°   Wind: 20mph
Humidity: 82%   Direction: 240°WSW
Pressure: 30.06"   Gusts: 31mph
Location:  51.37°N, 0.65°W
Report Text: EGLL 220620Z 24017G27KT 9999 BKN018 13/10 Q1018 NOSIG
Loading
Personal Weather Stations






























Interactive Weather Map New forecast layout! Learn more

10-Day Weather Forecast

Advertisements
Track Severe Weather on mobile